Time;durP1;ratioP1;P1;durP2;ratioP2;P2;SDS_P1;SDS_P2;PMS_P1;PMS_P2;Temp;Humidity;BMP_temperature;BMP_pressure;BME280_temperature;BME280_humidity;BME280_pressure;Samples;Min_cycle;Max_cycle;Signal;HPM_P1;HPM_P2
2022/03/31 00:00:57;;;;;;;;;;;10.40;99.90;;;;;;5097342;28;19944;-82
2022/03/31 00:03:23;;;;;;;;;;;10.30;99.90;;;;;;5097230;28;19939;-81
2022/03/31 00:05:49;;;;;;;;;;;10.20;99.90;;;;;;5097028;28;19908;-81
2022/03/31 00:08:16;;;;;;;;;;;10.10;99.90;;;;;;5078639;28;19961;-82
2022/03/31 00:10:44;;;;;;;;;;;10.00;99.90;;;;;;5096784;28;19991;-82
2022/03/31 00:13:12;;;;;;;;;;;10.00;99.90;;;;;;5096854;28;19912;-81
2022/03/31 00:15:38;;;;;;;;;;;9.90;99.90;;;;;;5096630;28;19919;-82
2022/03/31 00:18:04;;;;;;;;;;;9.90;99.90;;;;;;5096246;28;19920;-82
2022/03/31 00:20:29;;;;;;;;;;;9.90;99.90;;;;;;5096649;28;20325;-81
2022/03/31 00:22:55;;;;;;;;;;;9.80;99.90;;;;;;5096557;28;19908;-82
2022/03/31 00:25:23;;;;;;;;;;;9.70;99.90;;;;;;5096631;28;19912;-82
2022/03/31 00:27:49;;;;;;;;;;;9.60;99.90;;;;;;5078334;28;19999;-82
2022/03/31 00:30:15;;;;;;;;;;;9.60;99.90;;;;;;5096455;28;19908;-82
2022/03/31 00:32:41;;;;;;;;;;;9.60;99.90;;;;;;5096862;28;20403;-82
2022/03/31 00:35:07;;;;;;;;;;;9.50;99.90;;;;;;5096494;28;19908;-82
2022/03/31 00:37:33;;;;;;;;;;;9.40;99.90;;;;;;5096257;28;19918;-82
2022/03/31 00:39:58;;;;;;;;;;;9.40;99.90;;;;;;5078062;28;19908;-82
2022/03/31 00:42:25;;;;;;;;;;;9.40;99.90;;;;;;5096179;28;20372;-82
2022/03/31 00:44:50;;;;;;;;;;;9.60;99.90;;;;;;5096563;28;19912;-82
2022/03/31 00:47:17;;;;;;;;;;;9.50;99.90;;;;;;5096448;28;19961;-81
2022/03/31 00:49:43;;;;;;;;;;;9.70;99.90;;;;;;5096322;28;19927;-81
2022/03/31 00:52:08;;;;;;;;;;;9.90;99.90;;;;;;5096013;28;19908;-82
2022/03/31 00:54:34;;;;;;;;;;;9.80;99.90;;;;;;5095862;28;20337;-82
2022/03/31 00:57:02;;;;;;;;;;;9.70;99.90;;;;;;5096282;28;19916;-82
2022/03/31 00:59:28;;;;;;;;;;;9.60;99.90;;;;;;5096199;28;19915;-81
2022/03/31 01:01:54;;;;;;;;;;;9.40;99.90;;;;;;5095802;28;19909;-81
2022/03/31 01:04:19;;;;;;;;;;;9.40;99.90;;;;;;5095741;28;19912;-82
2022/03/31 01:06:45;;;;;;;;;;;9.30;99.90;;;;;;5095706;28;19908;-82
2022/03/31 01:09:12;;;;;;;;;;;9.20;99.90;;;;;;5095808;28;19912;-82
2022/03/31 01:11:38;;;;;;;;;;;9.20;99.90;;;;;;5095612;28;19950;-82
2022/03/31 01:14:04;;;;;;;;;;;9.10;99.90;;;;;;5095636;28;19908;-82
2022/03/31 01:16:33;;;;;;;;;;;9.00;99.90;;;;;;5077275;28;20456;-82
2022/03/31 01:19:03;;;;;;;;;;;9.00;99.90;;;;;;5095200;28;19927;-82
2022/03/31 01:21:28;;;;;;;;;;;9.00;99.90;;;;;;5077260;28;19909;-82
2022/03/31 01:23:54;;;;;;;;;;;9.20;99.90;;;;;;5077251;28;19908;-82
2022/03/31 01:26:20;;;;;;;;;;;9.10;99.90;;;;;;5095329;28;19912;-82
2022/03/31 01:28:46;;;;;;;;;;;8.90;99.90;;;;;;5095503;28;19915;-81
2022/03/31 01:31:13;;;;;;;;;;;9.00;99.90;;;;;;5094783;28;19908;-82
2022/03/31 01:33:40;;;;;;;;;;;9.30;99.90;;;;;;5076996;28;19908;-82
2022/03/31 01:36:07;;;;;;;;;;;9.50;99.90;;;;;;5095070;28;20382;-81
2022/03/31 01:38:33;;;;;;;;;;;9.30;99.90;;;;;;5077005;28;19961;-82
2022/03/31 01:40:59;;;;;;;;;;;9.60;99.90;;;;;;5095138;28;19999;-81
2022/03/31 01:43:25;;;;;;;;;;;9.70;99.90;;;;;;5095081;28;19908;-82
2022/03/31 01:45:52;;;;;;;;;;;9.60;99.90;;;;;;5076819;28;19908;-81
2022/03/31 01:48:21;;;;;;;;;;;9.80;99.90;;;;;;5094939;28;19908;-82
2022/03/31 01:50:46;;;;;;;;;;;9.90;99.90;;;;;;5095059;28;19954;-81
2022/03/31 01:53:14;;;;;;;;;;;9.80;99.90;;;;;;5094996;28;19908;-82
2022/03/31 01:55:40;;;;;;;;;;;9.90;99.90;;;;;;5094704;28;19970;-82
2022/03/31 01:58:06;;;;;;;;;;;9.60;99.90;;;;;;5094767;28;20356;-82
2022/03/31 02:00:32;;;;;;;;;;;9.50;99.90;;;;;;5095134;28;20322;-81
2022/03/31 02:02:59;;;;;;;;;;;9.40;99.90;;;;;;5076509;28;19908;-82
2022/03/31 02:05:25;;;;;;;;;;;9.30;99.90;;;;;;5094630;28;19908;-82
2022/03/31 02:07:54;;;;;;;;;;;9.20;99.90;;;;;;5076428;28;19977;-81
2022/03/31 02:10:20;;;;;;;;;;;9.30;99.90;;;;;;5094529;28;20010;-81
2022/03/31 02:12:47;;;;;;;;;;;9.30;99.90;;;;;;5094904;28;19951;-82
2022/03/31 02:15:13;;;;;;;;;;;9.50;99.90;;;;;;5094518;28;19915;-81
2022/03/31 02:17:39;;;;;;;;;;;9.60;99.90;;;;;;5075965;28;20376;-82
2022/03/31 02:20:04;;;;;;;;;;;9.50;99.90;;;;;;5094244;28;19915;-82
2022/03/31 02:22:30;;;;;;;;;;;9.60;99.90;;;;;;5094693;28;20384;-82
2022/03/31 02:24:56;;;;;;;;;;;9.60;99.90;;;;;;5094305;28;20368;-82
2022/03/31 02:27:21;;;;;;;;;;;9.50;99.90;;;;;;5094214;28;19908;-81
2022/03/31 02:29:47;;;;;;;;;;;9.40;99.90;;;;;;5094473;28;19995;-82
2022/03/31 02:32:12;;;;;;;;;;;9.20;99.90;;;;;;5094146;28;20019;-82
2022/03/31 02:34:38;;;;;;;;;;;9.20;99.90;;;;;;5094425;28;19908;-82
2022/03/31 02:37:04;;;;;;;;;;;9.20;99.90;;;;;;5094011;28;19919;-82
2022/03/31 02:39:30;;;;;;;;;;;9.30;99.90;;;;;;5094074;28;19912;-81
2022/03/31 02:42:01;;;;;;;;;;;9.30;99.90;;;;;;5093938;28;19930;-82
2022/03/31 02:44:27;;;;;;;;;;;9.30;99.90;;;;;;5094222;28;19908;-82
2022/03/31 02:46:52;;;;;;;;;;;9.30;99.90;;;;;;5094329;28;19913;-81
2022/03/31 02:49:18;;;;;;;;;;;9.40;99.90;;;;;;5093915;28;19909;-82
2022/03/31 02:51:44;;;;;;;;;;;9.40;99.90;;;;;;5093806;28;19956;-82
2022/03/31 02:56:54;;;;;;;;;;;9.70;99.90;;;;;;5093754;28;19935;-82
2022/03/31 02:59:20;;;;;;;;;;;9.50;99.90;;;;;;5075654;28;20364;-82
2022/03/31 03:01:45;;;;;;;;;;;9.30;99.90;;;;;;5075580;28;19908;-82
2022/03/31 03:04:11;;;;;;;;;;;9.10;99.90;;;;;;5093724;28;19908;-81
2022/03/31 03:06:37;;;;;;;;;;;9.20;99.90;;;;;;5094093;28;19908;-82
2022/03/31 03:09:03;;;;;;;;;;;9.30;99.90;;;;;;5093829;28;20002;-82
2022/03/31 03:11:29;;;;;;;;;;;9.50;99.90;;;;;;5075533;28;19909;-82
2022/03/31 03:13:55;;;;;;;;;;;9.60;99.90;;;;;;5093631;28;19969;-82
2022/03/31 03:16:21;;;;;;;;;;;9.60;99.90;;;;;;5093545;28;19971;-81
2022/03/31 03:18:46;;;;;;;;;;;9.50;99.90;;;;;;5093463;28;19920;-82
2022/03/31 03:21:12;;;;;;;;;;;9.20;99.90;;;;;;5093741;28;20340;-82
2022/03/31 03:23:38;;;;;;;;;;;9.00;99.90;;;;;;5093548;28;19909;-82
2022/03/31 03:26:04;;;;;;;;;;;9.00;99.90;;;;;;5093510;28;19915;-82
2022/03/31 03:28:30;;;;;;;;;;;8.90;99.90;;;;;;5093496;28;20258;-82
2022/03/31 03:30:56;;;;;;;;;;;9.10;99.90;;;;;;5093779;28;19908;-82
2022/03/31 03:33:22;;;;;;;;;;;9.10;99.90;;;;;;5093418;28;20287;-82
2022/03/31 03:35:47;;;;;;;;;;;8.80;99.90;;;;;;5093624;28;20014;-82
2022/03/31 03:38:14;;;;;;;;;;;9.10;99.90;;;;;;5093468;28;19909;-82
2022/03/31 03:40:40;;;;;;;;;;;9.20;99.90;;;;;;5093418;28;19939;-82
2022/03/31 03:43:06;;;;;;;;;;;9.30;99.90;;;;;;5075236;28;20372;-82
2022/03/31 03:45:31;;;;;;;;;;;9.40;99.90;;;;;;5093385;28;19971;-82
2022/03/31 03:47:58;;;;;;;;;;;9.50;99.90;;;;;;5093307;28;20352;-81
2022/03/31 03:50:25;;;;;;;;;;;9.60;99.90;;;;;;5075115;28;20280;-82
2022/03/31 03:52:51;;;;;;;;;;;9.70;99.90;;;;;;5075135;28;19912;-83
2022/03/31 03:55:17;;;;;;;;;;;9.60;99.90;;;;;;5096921;28;19962;-82
2022/03/31 03:57:42;;;;;;;;;;;9.50;99.90;;;;;;5097113;28;20327;-82
2022/03/31 04:00:09;;;;;;;;;;;9.50;99.90;;;;;;5097003;28;19908;-82
2022/03/31 04:02:35;;;;;;;;;;;9.70;99.90;;;;;;5096921;28;20345;-81
2022/03/31 04:05:01;;;;;;;;;;;9.70;99.90;;;;;;5097236;28;20395;-82
2022/03/31 04:07:27;;;;;;;;;;;9.80;99.90;;;;;;5096912;28;19908;-82
2022/03/31 04:09:52;;;;;;;;;;;9.90;99.90;;;;;;5097067;28;19908;-82
2022/03/31 04:12:18;;;;;;;;;;;10.00;99.90;;;;;;5096756;28;19908;-82
2022/03/31 04:14:44;;;;;;;;;;;10.00;99.90;;;;;;5097028;28;19908;-82
2022/03/31 04:17:09;;;;;;;;;;;9.90;99.90;;;;;;5096442;28;19982;-82
2022/03/31 04:19:35;;;;;;;;;;;9.80;99.90;;;;;;5096804;28;19916;-82
2022/03/31 04:22:00;;;;;;;;;;;9.80;99.90;;;;;;5096533;28;20006;-82
2022/03/31 04:24:26;;;;;;;;;;;9.90;99.90;;;;;;5096822;28;19908;-82
2022/03/31 04:26:52;;;;;;;;;;;9.80;99.90;;;;;;5096502;28;20364;-82
2022/03/31 04:29:17;;;;;;;;;;;9.80;99.90;;;;;;5096551;28;19908;-82
2022/03/31 04:31:43;;;;;;;;;;;9.90;99.90;;;;;;5096505;28;19908;-81
2022/03/31 04:34:10;;;;;;;;;;;9.80;99.90;;;;;;5096332;28;19908;-81
2022/03/31 04:36:35;;;;;;;;;;;10.00;99.90;;;;;;5096406;28;19912;-82
2022/03/31 04:39:01;;;;;;;;;;;10.10;99.90;;;;;;5078095;28;20471;-82
2022/03/31 04:41:27;;;;;;;;;;;10.00;99.90;;;;;;5096357;28;19908;-81
2022/03/31 04:43:53;;;;;;;;;;;9.70;99.90;;;;;;5096183;28;19908;-82
2022/03/31 04:46:19;;;;;;;;;;;9.40;99.90;;;;;;5096337;28;19912;-81
2022/03/31 04:48:45;;;;;;;;;;;9.50;99.90;;;;;;5096064;28;19950;-82
2022/03/31 04:51:10;;;;;;;;;;;9.60;99.90;;;;;;5096031;28;19962;-82
2022/03/31 04:53:36;;;;;;;;;;;9.80;99.90;;;;;;5096037;28;19915;-82
2022/03/31 04:56:01;;;;;;;;;;;9.80;99.90;;;;;;5095784;28;20280;-82
2022/03/31 04:58:28;;;;;;;;;;;9.60;99.90;;;;;;5095896;28;19942;-81
2022/03/31 05:00:53;;;;;;;;;;;9.50;99.90;;;;;;5095972;28;19912;-82
2022/03/31 05:03:19;;;;;;;;;;;9.70;99.90;;;;;;5095799;28;19915;-81
2022/03/31 05:05:44;;;;;;;;;;;9.70;99.90;;;;;;5094642;28;19908;-82
2022/03/31 05:08:10;;;;;;;;;;;9.70;99.90;;;;;;5095668;28;19912;-82
2022/03/31 05:10:36;;;;;;;;;;;9.60;99.90;;;;;;5095934;28;19908;-82
2022/03/31 05:13:02;;;;;;;;;;;9.60;99.90;;;;;;5095567;28;20386;-82
2022/03/31 05:15:27;;;;;;;;;;;9.70;99.90;;;;;;5077316;28;19915;-82
2022/03/31 05:17:53;;;;;;;;;;;9.70;99.90;;;;;;5077055;28;20284;-82
2022/03/31 05:20:19;;;;;;;;;;;9.80;99.90;;;;;;5095478;28;19961;-82
2022/03/31 05:22:44;;;;;;;;;;;9.90;99.90;;;;;;5077277;28;20360;-82
2022/03/31 05:25:11;;;;;;;;;;;9.90;99.90;;;;;;5095329;28;19911;-82
2022/03/31 05:27:41;;;;;;;;;;;9.90;99.90;;;;;;5095419;28;20000;-82
2022/03/31 05:30:07;;;;;;;;;;;9.90;99.90;;;;;;5095754;28;19912;-82
2022/03/31 05:32:35;;;;;;;;;;;10.00;99.90;;;;;;5094106;28;20207;-82
2022/03/31 05:35:00;;;;;;;;;;;10.00;99.90;;;;;;5095242;28;20003;-82
2022/03/31 05:37:26;;;;;;;;;;;10.10;99.90;;;;;;5094934;28;20007;-81
2022/03/31 05:39:52;;;;;;;;;;;10.00;99.90;;;;;;5076768;28;19912;-82
2022/03/31 05:42:17;;;;;;;;;;;9.80;99.90;;;;;;5094995;28;20415;-82
2022/03/31 05:44:43;;;;;;;;;;;9.80;99.90;;;;;;5094971;28;19931;-82
2022/03/31 05:47:08;;;;;;;;;;;9.70;99.90;;;;;;5094832;28;19912;-82
2022/03/31 05:49:34;;;;;;;;;;;9.60;99.90;;;;;;5095041;28;19908;-81
2022/03/31 05:52:00;;;;;;;;;;;9.50;99.90;;;;;;5095193;28;19912;-82
2022/03/31 05:54:25;;;;;;;;;;;9.30;99.90;;;;;;5094698;28;19991;-82
2022/03/31 05:56:51;;;;;;;;;;;9.20;99.90;;;;;;5094645;28;19912;-82
2022/03/31 05:59:17;;;;;;;;;;;9.40;99.90;;;;;;5095031;28;19909;-82
2022/03/31 06:01:42;;;;;;;;;;;9.50;99.90;;;;;;5094508;28;20279;-82
2022/03/31 06:04:08;;;;;;;;;;;9.70;99.90;;;;;;5094509;28;19908;-82
2022/03/31 06:06:34;;;;;;;;;;;9.90;99.90;;;;;;5094742;28;20388;-82
2022/03/31 06:09:00;;;;;;;;;;;10.10;99.90;;;;;;5076270;28;19939;-82
2022/03/31 06:11:25;;;;;;;;;;;10.20;99.90;;;;;;5094411;28;19965;-82
2022/03/31 06:13:51;;;;;;;;;;;10.20;99.90;;;;;;5094379;28;20271;-81
2022/03/31 06:16:16;;;;;;;;;;;10.10;99.90;;;;;;5093986;28;19967;-82
2022/03/31 06:18:42;;;;;;;;;;;10.10;99.90;;;;;;5094095;28;19927;-82
2022/03/31 06:21:08;;;;;;;;;;;10.10;99.90;;;;;;5094389;28;19995;-81
2022/03/31 06:23:34;;;;;;;;;;;10.00;99.90;;;;;;5093843;28;19918;-82
2022/03/31 06:25:59;;;;;;;;;;;10.10;99.90;;;;;;5094446;28;19908;-82
2022/03/31 06:28:28;;;;;;;;;;;10.10;99.90;;;;;;5076076;28;19994;-83
2022/03/31 06:30:54;;;;;;;;;;;10.10;99.90;;;;;;5094111;28;19908;-82
2022/03/31 06:33:20;;;;;;;;;;;10.20;99.90;;;;;;5093933;28;20319;-82
2022/03/31 06:35:46;;;;;;;;;;;10.20;99.90;;;;;;5093925;28;20260;-81
2022/03/31 06:38:12;;;;;;;;;;;10.20;99.90;;;;;;5093973;28;19908;-82
2022/03/31 06:40:38;;;;;;;;;;;10.30;99.90;;;;;;5094166;28;19973;-81
2022/03/31 06:43:04;;;;;;;;;;;10.30;99.90;;;;;;5093917;28;19934;-81
2022/03/31 06:45:30;;;;;;;;;;;10.30;99.90;;;;;;5075763;28;19908;-82
2022/03/31 06:47:56;;;;;;;;;;;10.30;99.90;;;;;;5093930;28;20389;-82
2022/03/31 06:50:22;;;;;;;;;;;10.40;99.90;;;;;;5093868;28;19908;-82
2022/03/31 06:52:48;;;;;;;;;;;10.60;99.90;;;;;;5075687;28;19909;-82
2022/03/31 06:55:13;;;;;;;;;;;10.30;99.90;;;;;;5075639;28;19953;-82
2022/03/31 06:57:40;;;;;;;;;;;10.20;99.90;;;;;;5075484;28;20280;-81
2022/03/31 07:00:06;;;;;;;;;;;10.30;99.90;;;;;;5093683;28;20383;-82
2022/03/31 07:02:32;;;;;;;;;;;10.30;99.90;;;;;;5094053;28;19908;-81
2022/03/31 07:04:57;;;;;;;;;;;10.20;99.90;;;;;;5094013;28;19908;-81
2022/03/31 07:07:24;;;;;;;;;;;10.30;99.90;;;;;;5093675;28;20045;-82
2022/03/31 07:09:51;;;;;;;;;;;10.20;99.90;;;;;;5093669;28;19908;-82
2022/03/31 07:12:16;;;;;;;;;;;10.00;99.90;;;;;;5093676;28;20427;-82
2022/03/31 07:14:43;;;;;;;;;;;9.80;99.90;;;;;;5075481;28;19947;-82
2022/03/31 07:17:09;;;;;;;;;;;9.90;99.90;;;;;;5093487;28;20368;-81
2022/03/31 07:19:35;;;;;;;;;;;10.00;99.90;;;;;;5075440;28;19912;-82
2022/03/31 07:22:01;;;;;;;;;;;10.10;99.90;;;;;;5075417;28;20326;-82
2022/03/31 07:24:26;;;;;;;;;;;10.10;99.90;;;;;;5093481;28;19908;-83
2022/03/31 07:26:52;;;;;;;;;;;10.20;99.90;;;;;;5093717;28;20310;-82
2022/03/31 07:29:17;;;;;;;;;;;9.90;99.90;;;;;;5077553;28;19908;-82
2022/03/31 07:31:43;;;;;;;;;;;9.70;99.90;;;;;;5097662;28;19908;-82
2022/03/31 07:34:09;;;;;;;;;;;9.80;99.90;;;;;;5097511;28;19908;-82
2022/03/31 07:36:34;;;;;;;;;;;9.90;99.90;;;;;;5097315;28;20395;-82
2022/03/31 07:39:00;;;;;;;;;;;9.80;99.90;;;;;;5097380;28;19912;-82
2022/03/31 07:41:26;;;;;;;;;;;9.90;99.90;;;;;;5097323;28;19915;-82
2022/03/31 07:43:51;;;;;;;;;;;9.90;99.90;;;;;;5079026;28;19915;-82
2022/03/31 07:46:18;;;;;;;;;;;9.90;99.90;;;;;;5097225;28;19908;-81
2022/03/31 07:48:43;;;;;;;;;;;9.90;99.90;;;;;;5097204;28;19923;-82
2022/03/31 07:51:09;;;;;;;;;;;9.90;99.90;;;;;;5097149;28;19908;-82
2022/03/31 07:53:35;;;;;;;;;;;9.90;99.90;;;;;;5078954;28;19908;-82
2022/03/31 07:56:01;;;;;;;;;;;10.10;99.90;;;;;;5097009;28;20303;-82
2022/03/31 07:58:27;;;;;;;;;;;10.10;99.90;;;;;;5097027;28;19970;-82
2022/03/31 08:00:52;;;;;;;;;;;10.00;99.90;;;;;;5097261;28;19908;-82
2022/03/31 08:03:18;;;;;;;;;;;10.00;99.90;;;;;;5097134;28;20288;-82
2022/03/31 08:05:45;;;;;;;;;;;9.90;99.90;;;;;;5097108;28;19908;-82
2022/03/31 08:08:10;;;;;;;;;;;9.90;99.90;;;;;;5096888;28;20262;-82
2022/03/31 08:10:36;;;;;;;;;;;9.80;99.90;;;;;;5096893;28;20002;-82
2022/03/31 08:13:02;;;;;;;;;;;9.90;99.90;;;;;;5096725;28;19917;-81
2022/03/31 08:15:27;;;;;;;;;;;9.80;99.90;;;;;;5078474;28;19915;-82
2022/03/31 08:17:53;;;;;;;;;;;9.80;99.90;;;;;;5096493;28;19920;-82
2022/03/31 08:20:19;;;;;;;;;;;9.90;99.90;;;;;;5096924;28;19915;-82
2022/03/31 08:22:45;;;;;;;;;;;9.80;99.90;;;;;;5096645;28;19908;-82
2022/03/31 08:25:11;;;;;;;;;;;9.70;99.90;;;;;;5096531;28;19912;-82
2022/03/31 08:27:37;;;;;;;;;;;9.70;99.90;;;;;;5096475;28;19908;-82
2022/03/31 08:30:04;;;;;;;;;;;9.60;99.90;;;;;;5096519;28;20330;-82
2022/03/31 08:32:34;;;;;;;;;;;9.50;99.90;;;;;;5096376;28;19908;-82
2022/03/31 08:35:01;;;;;;;;;;;9.50;99.90;;;;;;5096419;28;19947;-82
2022/03/31 08:37:26;;;;;;;;;;;9.40;99.90;;;;;;5096232;28;19912;-81
2022/03/31 08:39:52;;;;;;;;;;;9.40;99.90;;;;;;5096451;28;20433;-83
2022/03/31 08:42:18;;;;;;;;;;;9.40;99.90;;;;;;5096479;28;19934;-82
2022/03/31 08:44:44;;;;;;;;;;;9.40;99.90;;;;;;5078034;28;19908;-82
2022/03/31 08:47:10;;;;;;;;;;;9.40;99.90;;;;;;5096300;28;19908;-82
2022/03/31 08:49:35;;;;;;;;;;;9.60;99.90;;;;;;5096090;28;20276;-82
2022/03/31 08:52:02;;;;;;;;;;;9.60;99.90;;;;;;5095953;28;19916;-82
2022/03/31 08:54:27;;;;;;;;;;;9.60;99.90;;;;;;5077595;28;20355;-82
2022/03/31 08:56:54;;;;;;;;;;;9.60;99.90;;;;;;5096005;28;19955;-82
2022/03/31 08:59:19;;;;;;;;;;;9.70;99.90;;;;;;5095976;28;20289;-82
2022/03/31 09:01:45;;;;;;;;;;;9.70;99.90;;;;;;5095774;28;19915;-82
2022/03/31 09:04:23;;;;;;;;;;;9.90;99.90;;;;;;5095845;28;19912;-82
2022/03/31 09:06:49;;;;;;;;;;;10.10;99.90;;;;;;5077606;28;19908;-82
2022/03/31 09:09:17;;;;;;;;;;;9.90;99.90;;;;;;5095751;28;19912;-82
2022/03/31 09:11:45;;;;;;;;;;;9.90;99.90;;;;;;5077560;28;19958;-82
2022/03/31 09:14:10;;;;;;;;;;;9.70;99.90;;;;;;5095651;28;20295;-82
2022/03/31 09:16:37;;;;;;;;;;;9.40;99.90;;;;;;5095752;28;19912;-82
2022/03/31 09:19:09;;;;;;;;;;;9.10;99.90;;;;;;5095237;28;19927;-82
2022/03/31 09:21:48;;;;;;;;;;;9.00;99.90;;;;;;5095539;28;19912;-82
2022/03/31 09:24:15;;;;;;;;;;;9.00;99.90;;;;;;5077007;28;19915;-82
2022/03/31 09:26:44;;;;;;;;;;;9.00;99.90;;;;;;5095256;28;19919;-82
2022/03/31 09:29:12;;;;;;;;;;;8.70;99.90;;;;;;5095304;28;20431;-82
2022/03/31 09:31:40;;;;;;;;;;;8.80;99.90;;;;;;5095349;28;19916;-84
2022/03/31 09:34:05;;;;;;;;;;;8.70;99.90;;;;;;5095065;28;19943;-84
2022/03/31 09:36:31;;;;;;;;;;;8.80;99.90;;;;;;5094997;28;19958;-85
2022/03/31 09:38:58;;;;;;;;;;;9.00;99.90;;;;;;5076980;28;19915;-85
2022/03/31 09:41:25;;;;;;;;;;;8.90;99.90;;;;;;5095113;28;20269;-84
2022/03/31 09:43:51;;;;;;;;;;;9.00;99.90;;;;;;5095327;28;19912;-84
2022/03/31 09:46:33;;;;;;;;;;;8.90;99.90;;;;;;5095222;28;19915;-84
2022/03/31 09:48:59;;;;;;;;;;;8.70;99.90;;;;;;5094910;28;19995;-85
2022/03/31 09:51:25;;;;;;;;;;;8.80;99.90;;;;;;5094169;28;19908;-82
2022/03/31 09:53:52;;;;;;;;;;;8.90;99.90;;;;;;5094783;28;19998;-82
2022/03/31 09:56:19;;;;;;;;;;;9.00;99.90;;;;;;5095138;28;19912;-81
2022/03/31 09:58:46;;;;;;;;;;;8.80;99.90;;;;;;5076620;28;19908;-82
2022/03/31 10:01:16;;;;;;;;;;;9.00;99.90;;;;;;5076507;28;19912;-82
2022/03/31 10:03:41;;;;;;;;;;;9.00;99.90;;;;;;5094630;28;19915;-82
2022/03/31 10:06:07;;;;;;;;;;;9.20;99.90;;;;;;5076421;28;19908;-83
2022/03/31 10:08:37;;;;;;;;;;;9.20;99.90;;;;;;5094590;28;19908;-82
2022/03/31 10:11:04;;;;;;;;;;;8.70;99.90;;;;;;5094771;28;19908;-82
2022/03/31 10:13:36;;;;;;;;;;;8.40;99.90;;;;;;5094783;28;20280;-84
2022/03/31 10:16:09;;;;;;;;;;;8.60;99.90;;;;;;5094846;28;20428;-84
2022/03/31 10:18:35;;;;;;;;;;;8.80;99.90;;;;;;5094199;28;19920;-84
2022/03/31 10:21:01;;;;;;;;;;;8.50;99.90;;;;;;5094369;28;19912;-84
2022/03/31 10:26:25;;;;;;;;;;;8.70;99.90;;;;;;5094236;28;20007;-84
2022/03/31 10:28:58;;;;;;;;;;;8.90;99.90;;;;;;5094241;28;20360;-85
2022/03/31 10:31:34;;;;;;;;;;;9.40;99.90;;;;;;5094334;28;19923;-84
2022/03/31 10:34:00;;;;;;;;;;;9.50;99.90;;;;;;5094139;28;19915;-85
2022/03/31 10:36:33;;;;;;;;;;;10.00;99.90;;;;;;5075874;28;20441;-85
2022/03/31 10:39:03;;;;;;;;;;;9.40;99.90;;;;;;5075709;28;19915;-85
2022/03/31 10:41:30;;;;;;;;;;;9.70;99.90;;;;;;5075898;28;19908;-85
2022/03/31 10:43:58;;;;;;;;;;;9.60;99.90;;;;;;5093975;28;19908;-84
2022/03/31 10:46:25;;;;;;;;;;;9.80;99.90;;;;;;5093941;28;20002;-84
2022/03/31 10:49:00;;;;;;;;;;;10.10;99.90;;;;;;5094274;28;20434;-84
2022/03/31 10:51:32;;;;;;;;;;;10.50;99.90;;;;;;5093937;28;19915;-85
2022/03/31 10:53:58;;;;;;;;;;;11.40;99.90;;;;;;5094060;28;19947;-83
2022/03/31 10:56:25;;;;;;;;;;;11.10;99.90;;;;;;5093949;28;19938;-82
2022/03/31 10:58:52;;;;;;;;;;;11.20;99.90;;;;;;5093847;28;19912;-82
2022/03/31 11:01:18;;;;;;;;;;;10.90;99.90;;;;;;5093846;28;19916;-82
2022/03/31 11:03:45;;;;;;;;;;;11.10;99.90;;;;;;5092952;28;19908;-83
2022/03/31 11:06:13;;;;;;;;;;;11.30;99.90;;;;;;5075643;28;19926;-83
2022/03/31 11:08:40;;;;;;;;;;;10.20;99.90;;;;;;5093774;28;19954;-83
2022/03/31 11:11:05;;;;;;;;;;;10.00;99.90;;;;;;5094040;28;19908;-85
2022/03/31 11:13:32;;;;;;;;;;;9.80;99.90;;;;;;5075565;28;19931;-85
2022/03/31 11:15:58;;;;;;;;;;;9.40;99.90;;;;;;5093584;28;19918;-85
2022/03/31 11:18:23;;;;;;;;;;;9.10;99.90;;;;;;5093571;28;20279;-84
2022/03/31 11:20:59;;;;;;;;;;;9.60;99.90;;;;;;5093629;28;19957;-85
2022/03/31 11:23:26;;;;;;;;;;;10.10;99.90;;;;;;5075487;28;20261;-84
2022/03/31 11:25:52;;;;;;;;;;;10.40;99.90;;;;;;5094015;28;19908;-85
2022/03/31 11:28:17;;;;;;;;;;;10.60;99.90;;;;;;5093726;28;19908;-85
2022/03/31 11:30:43;;;;;;;;;;;10.50;99.90;;;;;;5093624;28;19908;-84
2022/03/31 11:33:10;;;;;;;;;;;10.30;99.90;;;;;;5093485;28;19916;-84
2022/03/31 11:35:36;;;;;;;;;;;9.70;99.90;;;;;;5093425;28;19956;-85
2022/03/31 11:38:08;;;;;;;;;;;9.00;99.90;;;;;;5093731;28;19908;-85
2022/03/31 11:40:35;;;;;;;;;;;8.50;99.90;;;;;;5093634;28;19931;-85
2022/03/31 11:43:03;;;;;;;;;;;9.00;99.90;;;;;;5093534;28;19920;-85
2022/03/31 11:45:32;;;;;;;;;;;9.20;99.90;;;;;;5093483;28;19999;-85
2022/03/31 11:48:02;;;;;;;;;;;9.20;99.90;;;;;;5093355;28;19915;-85
2022/03/31 11:50:28;;;;;;;;;;;8.90;99.90;;;;;;5093337;28;19930;-85
2022/03/31 11:52:54;;;;;;;;;;;8.70;99.90;;;;;;5093386;28;19908;-85
2022/03/31 11:55:21;;;;;;;;;;;8.70;99.90;;;;;;5093251;28;19914;-84
2022/03/31 11:57:54;;;;;;;;;;;8.70;99.90;;;;;;5093229;28;19912;-82
2022/03/31 12:00:20;;;;;;;;;;;8.40;99.90;;;;;;5093206;28;19908;-81
2022/03/31 12:03:17;;;;;;;;;;;8.50;99.90;;;;;;5093659;28;20344;-82
2022/03/31 12:05:44;;;;;;;;;;;8.40;99.90;;;;;;5084399;28;19908;-82
2022/03/31 12:08:10;;;;;;;;;;;8.60;99.90;;;;;;5093222;28;20365;-82
2022/03/31 12:10:35;;;;;;;;;;;9.10;99.90;;;;;;5075057;28;19915;-82
2022/03/31 12:13:04;;;;;;;;;;;9.00;99.90;;;;;;5093131;28;20322;-81
2022/03/31 12:15:33;;;;;;;;;;;9.30;99.90;;;;;;5095461;28;19908;-82
2022/03/31 12:18:06;;;;;;;;;;;9.40;99.90;;;;;;5096628;28;19927;-83
2022/03/31 12:20:33;;;;;;;;;;;9.30;99.90;;;;;;5096698;28;19908;-82
2022/03/31 12:22:59;;;;;;;;;;;10.00;99.90;;;;;;5096636;28;19908;-82
2022/03/31 12:25:28;;;;;;;;;;;10.10;99.90;;;;;;5096902;28;19915;-82
2022/03/31 12:27:54;;;;;;;;;;;10.60;99.90;;;;;;5096630;28;19915;-82
2022/03/31 12:30:19;;;;;;;;;;;12.90;99.90;;;;;;5096462;28;19908;-82
2022/03/31 12:32:47;;;;;;;;;;;13.50;96.70;;;;;;5078060;28;20395;-83
2022/03/31 12:35:12;;;;;;;;;;;12.30;96.70;;;;;;5096353;28;20020;-83
2022/03/31 12:37:38;;;;;;;;;;;12.10;97.40;;;;;;5096467;28;19966;-82
2022/03/31 12:40:06;;;;;;;;;;;12.20;97.20;;;;;;5096335;28;19915;-82
2022/03/31 12:42:31;;;;;;;;;;;12.30;96.50;;;;;;5078081;28;20436;-82
2022/03/31 12:44:57;;;;;;;;;;;11.80;97.50;;;;;;5096179;28;19951;-83
2022/03/31 12:47:24;;;;;;;;;;;11.80;98.60;;;;;;5096210;28;19908;-82
2022/03/31 12:49:50;;;;;;;;;;;12.10;97.90;;;;;;5096091;28;19916;-82
2022/03/31 12:52:17;;;;;;;;;;;13.20;95.50;;;;;;5096228;28;19951;-82
2022/03/31 12:54:49;;;;;;;;;;;13.60;95.00;;;;;;5095956;28;19991;-82
2022/03/31 12:57:22;;;;;;;;;;;13.40;93.60;;;;;;5095872;28;19912;-82
2022/03/31 12:59:57;;;;;;;;;;;12.90;94.80;;;;;;5077700;28;19908;-83
2022/03/31 13:02:22;;;;;;;;;;;11.90;96.00;;;;;;5096112;28;19923;-82
2022/03/31 13:04:48;;;;;;;;;;;11.80;96.60;;;;;;5096043;28;20372;-83
2022/03/31 13:07:18;;;;;;;;;;;14.20;98.10;;;;;;5095734;28;19915;-83
2022/03/31 13:09:44;;;;;;;;;;;16.90;90.80;;;;;;5095813;28;19914;-83
2022/03/31 13:12:11;;;;;;;;;;;18.30;85.00;;;;;;5095691;28;19957;-83
2022/03/31 13:14:37;;;;;;;;;;;19.20;79.30;;;;;;5095624;28;19908;-83
2022/03/31 13:17:04;;;;;;;;;;;21.40;71.00;;;;;;5095673;28;20440;-83
2022/03/31 13:19:30;;;;;;;;;;;21.60;68.50;;;;;;5094925;28;19966;-83
2022/03/31 13:21:56;;;;;;;;;;;21.30;64.70;;;;;;5095496;28;19915;-83
2022/03/31 13:24:21;;;;;;;;;;;19.50;64.20;;;;;;5077263;28;19915;-83
2022/03/31 13:26:48;;;;;;;;;;;18.20;65.70;;;;;;5094446;28;20387;-83
2022/03/31 13:29:14;;;;;;;;;;;15.60;70.10;;;;;;5095361;28;20410;-82
2022/03/31 13:31:40;;;;;;;;;;;12.80;76.10;;;;;;5095334;28;19991;-81
2022/03/31 13:34:07;;;;;;;;;;;10.80;97.10;;;;;;5077058;28;19908;-82
2022/03/31 13:36:33;;;;;;;;;;;11.40;99.90;;;;;;5095160;28;19919;-82
2022/03/31 13:38:58;;;;;;;;;;;11.20;98.10;;;;;;5077039;28;19909;-82
2022/03/31 13:41:24;;;;;;;;;;;13.50;95.40;;;;;;5095334;28;19915;-82
2022/03/31 13:43:50;;;;;;;;;;;21.70;77.70;;;;;;5093807;28;20326;-84
2022/03/31 13:46:16;;;;;;;;;;;27.10;57.40;;;;;;5095008;28;19974;-84
2022/03/31 13:48:41;;;;;;;;;;;26.50;51.20;;;;;;5095034;28;19908;-83
2022/03/31 13:51:07;;;;;;;;;;;22.80;51.60;;;;;;5095139;28;19908;-82
2022/03/31 13:53:45;;;;;;;;;;;20.80;56.80;;;;;;5095001;28;20265;-83
2022/03/31 13:56:11;;;;;;;;;;;25.30;52.30;;;;;;5094887;28;20369;-83
2022/03/31 14:01:35;;;;;;;;;;;23.70;48.30;;;;;;5071458;28;19915;-83
2022/03/31 14:04:02;;;;;;;;;;;25.00;50.60;;;;;;5076478;28;20399;-83
2022/03/31 14:06:34;;;;;;;;;;;28.30;46.10;;;;;;5094647;28;19909;-84
2022/03/31 14:09:03;;;;;;;;;;;27.00;43.40;;;;;;5076164;28;20330;-83
2022/03/31 14:11:30;;;;;;;;;;;26.70;43.10;;;;;;5094569;28;19909;-83
2022/03/31 14:13:59;;;;;;;;;;;27.10;41.90;;;;;;5076306;28;19999;-83
2022/03/31 14:16:29;;;;;;;;;;;24.10;43.00;;;;;;5076285;28;20422;-84
2022/03/31 14:18:55;;;;;;;;;;;26.40;43.20;;;;;;5094256;28;19920;-84
2022/03/31 14:21:22;;;;;;;;;;;27.60;42.80;;;;;;5076219;28;19919;-84
2022/03/31 14:23:48;;;;;;;;;;;24.30;42.00;;;;;;5094387;28;19908;-83
2022/03/31 14:26:14;;;;;;;;;;;21.00;45.20;;;;;;5076133;28;19908;-83
2022/03/31 14:28:40;;;;;;;;;;;19.90;48.60;;;;;;5094270;28;19931;-82
2022/03/31 14:31:07;;;;;;;;;;;21.10;47.20;;;;;;5094241;28;19954;-83